Time;durP1;ratioP1;P1;durP2;ratioP2;P2;SDS_P1;SDS_P2;PMS_P1;PMS_P2;Temp;Humidity;BMP_temperature;BMP_pressure;BME280_temperature;BME280_humidity;BME280_pressure;Samples;Min_cycle;Max_cycle;Signal;HPM_P1;HPM_P2
2023/05/22 00:00:43;;;;;;;31.52;18.58;;;16.20;57.70;;;;;;5077672;28;20112;-62
2023/05/22 00:03:09;;;;;;;32.80;19.25;;;16.20;60.10;;;;;;5077633;28;20025;-63
2023/05/22 00:05:39;;;;;;;33.38;19.80;;;16.10;64.50;;;;;;5077645;28;20082;-63
2023/05/22 00:08:10;;;;;;;26.58;18.88;;;16.00;68.00;;;;;;5077709;28;20412;-66
2023/05/22 00:10:39;;;;;;;32.47;19.83;;;16.00;69.10;;;;;;5076927;28;20297;-60
2023/05/22 00:13:05;;;;;;;33.00;19.77;;;16.00;69.90;;;;;;5077484;28;20162;-62
2023/05/22 00:15:33;;;;;;;37.78;19.17;;;16.00;71.70;;;;;;5077519;28;20119;-64
2023/05/22 00:17:58;;;;;;;33.70;21.10;;;15.90;77.20;;;;;;5077874;28;20028;-62
2023/05/22 00:20:27;;;;;;;39.08;22.33;;;16.00;76.70;;;;;;5076594;28;20043;-64
2023/05/22 00:22:55;;;;;;;32.22;21.80;;;16.00;76.70;;;;;;5076500;28;20285;-65
2023/05/22 00:25:21;;;;;;;33.97;21.38;;;16.00;76.70;;;;;;5077264;28;20040;-65
2023/05/22 00:27:47;;;;;;;30.90;20.65;;;15.90;77.90;;;;;;5110367;28;20392;-64
2023/05/22 00:30:13;;;;;;;34.03;20.65;;;15.90;81.00;;;;;;5077207;28;20294;-63
2023/05/22 00:32:39;;;;;;;31.48;19.58;;;15.90;82.20;;;;;;5076284;28;20109;-64
2023/05/22 00:35:06;;;;;;;32.25;19.70;;;15.80;85.10;;;;;;5093325;28;20057;-63
2023/05/22 00:37:31;;;;;;;33.80;20.58;;;15.80;86.60;;;;;;5076983;28;20036;-65
2023/05/22 00:39:57;;;;;;;28.60;19.45;;;15.90;83.60;;;;;;5076370;28;20085;-64
2023/05/22 00:42:23;;;;;;;35.25;19.77;;;15.80;84.60;;;;;;5077572;28;20107;-63
2023/05/22 00:44:49;;;;;;;31.92;20.13;;;15.90;82.10;;;;;;5093116;28;20033;-65
2023/05/22 00:47:16;;;;;;;39.40;20.40;;;15.80;83.50;;;;;;5077151;28;20103;-67
2023/05/22 00:49:42;;;;;;;37.45;21.30;;;15.60;88.70;;;;;;5110132;28;20079;-64
2023/05/22 00:52:10;;;;;;;28.15;20.05;;;15.60;90.60;;;;;;5110061;28;20028;-65
2023/05/22 00:54:36;;;;;;;34.67;21.02;;;15.50;91.90;;;;;;5076113;28;20032;-62
2023/05/22 00:57:03;;;;;;;29.25;20.33;;;15.50;92.00;;;;;;5077067;28;20047;-64
2023/05/22 00:59:30;;;;;;;32.67;20.80;;;15.40;92.80;;;;;;5076908;28;20081;-65
2023/05/22 01:01:57;;;;;;;38.92;21.15;;;15.40;92.80;;;;;;5076733;28;20027;-68
2023/05/22 01:04:24;;;;;;;37.35;21.73;;;15.30;94.00;;;;;;5076826;28;20051;-63
2023/05/22 01:06:49;;;;;;;37.90;21.90;;;15.30;94.40;;;;;;5086434;28;20056;-63
2023/05/22 01:09:15;;;;;;;41.85;21.60;;;15.20;94.70;;;;;;5096911;28;20301;-63
2023/05/22 01:11:54;;;;;;;36.85;22.40;;;15.10;96.30;;;;;;5079417;28;20032;-63
2023/05/22 01:14:45;;;;;;;35.90;22.35;;;15.10;96.80;;;;;;5097222;28;20028;-62
2023/05/22 01:17:22;;;;;;;38.33;21.73;;;15.10;98.00;;;;;;5079177;28;20028;-64
2023/05/22 01:20:13;;;;;;;37.28;22.60;;;15.00;98.90;;;;;;5096885;28;20024;-63
2023/05/22 01:23:01;;;;;;;35.17;21.52;;;15.00;99.80;;;;;;5097021;28;20028;-63
2023/05/22 01:25:49;;;;;;;41.08;22.25;;;15.10;99.30;;;;;;5096765;28;20035;-63
2023/05/22 01:28:56;;;;;;;39.13;23.77;;;15.00;99.90;;;;;;5096825;28;20036;-62
2023/05/22 01:31:31;;;;;;;35.38;22.55;;;15.10;99.90;;;;;;5088550;28;20036;-63
2023/05/22 01:34:01;;;;;;;40.92;23.55;;;15.10;99.80;;;;;;5079096;28;20059;-61
2023/05/22 01:36:31;;;;;;;45.50;23.52;;;15.00;99.90;;;;;;5079022;28;20028;-64
2023/05/22 01:39:00;;;;;;;42.47;23.73;;;14.90;99.90;;;;;;5097086;28;20081;-64
2023/05/22 01:41:28;;;;;;;43.60;24.55;;;14.80;99.90;;;;;;5097216;28;20119;-63
2023/05/22 01:43:54;;;;;;;42.95;24.58;;;14.80;99.90;;;;;;5078961;28;20085;-64
2023/05/22 01:46:20;;;;;;;42.25;26.15;;;14.90;99.90;;;;;;5112862;28;20058;-62
2023/05/22 01:48:46;;;;;;;41.47;25.55;;;14.90;99.90;;;;;;5078976;28;20036;-63
2023/05/22 01:51:19;;;;;;;50.97;26.75;;;14.90;99.90;;;;;;5079066;28;20040;-64
2023/05/22 01:54:00;;;;;;;42.10;25.33;;;15.00;99.90;;;;;;5112886;28;20036;-65
2023/05/22 01:56:38;;;;;;;43.90;25.45;;;14.90;99.90;;;;;;5096603;28;20423;-63
2023/05/22 01:59:13;;;;;;;48.40;25.90;;;14.90;99.90;;;;;;5096568;28;20291;-62
2023/05/22 02:01:41;;;;;;;47.85;27.00;;;14.90;99.90;;;;;;5079677;28;20032;-63
2023/05/22 02:04:09;;;;;;;46.42;26.92;;;14.90;99.90;;;;;;5078905;28;20020;-68
2023/05/22 02:06:37;;;;;;;53.92;28.67;;;14.90;99.90;;;;;;5078644;28;20048;-64
2023/05/22 02:09:04;;;;;;;50.75;28.60;;;15.00;99.90;;;;;;5096400;28;20032;-67
2023/05/22 02:11:32;;;;;;;49.17;29.20;;;14.90;99.90;;;;;;5078767;28;20352;-62
2023/05/22 02:13:59;;;;;;;52.28;27.52;;;15.00;99.90;;;;;;5113939;28;20085;-66
2023/05/22 02:16:27;;;;;;;56.58;27.77;;;14.80;99.90;;;;;;5100053;28;20040;-65
2023/05/22 02:19:04;;;;;;;48.50;26.17;;;14.80;99.90;;;;;;5100067;28;20034;-63
2023/05/22 02:21:33;;;;;;;47.38;26.30;;;14.80;99.90;;;;;;5082444;28;20115;-63
2023/05/22 02:24:00;;;;;;;45.03;25.80;;;14.70;99.90;;;;;;5082220;28;20086;-65
2023/05/22 02:26:26;;;;;;;43.83;24.58;;;14.60;99.90;;;;;;5099893;28;20102;-63
2023/05/22 02:28:52;;;;;;;46.75;25.75;;;14.50;99.90;;;;;;5082343;28;20054;-65
2023/05/22 02:31:18;;;;;;;41.13;24.88;;;14.50;99.90;;;;;;5099002;28;20060;-65
2023/05/22 02:33:44;;;;;;;44.75;25.52;;;14.50;99.90;;;;;;5082112;28;20403;-63
2023/05/22 02:36:11;;;;;;;41.53;23.02;;;14.60;99.90;;;;;;5098843;28;20043;-62
2023/05/22 02:38:38;;;;;;;44.03;23.42;;;14.60;99.90;;;;;;5099696;28;20319;-64
2023/05/22 02:41:04;;;;;;;41.92;24.08;;;14.50;99.90;;;;;;5081969;28;20028;-62
2023/05/22 02:43:31;;;;;;;47.42;24.83;;;14.50;99.90;;;;;;5081977;28;20020;-62
2023/05/22 02:45:57;;;;;;;47.35;24.27;;;14.60;99.90;;;;;;5081895;28;20028;-62
2023/05/22 02:48:23;;;;;;;50.15;26.17;;;14.60;99.90;;;;;;5081866;28;20176;-62
2023/05/22 02:50:49;;;;;;;43.90;24.88;;;14.60;99.90;;;;;;5098620;28;20127;-63
2023/05/22 02:53:16;;;;;;;50.30;28.02;;;14.60;99.90;;;;;;5081682;28;20039;-66
2023/05/22 02:55:42;;;;;;;52.97;29.25;;;14.70;99.90;;;;;;5081663;28;20020;-69
2023/05/22 02:58:10;;;;;;;50.22;28.17;;;14.70;99.90;;;;;;5081500;28;20043;-66
2023/05/22 03:00:37;;;;;;;49.25;29.42;;;14.80;99.90;;;;;;5115331;28;20035;-63
2023/05/22 03:03:03;;;;;;;52.22;28.52;;;14.70;99.90;;;;;;5098602;28;20395;-63
2023/05/22 03:05:30;;;;;;;52.47;28.95;;;14.70;99.90;;;;;;5115522;28;20028;-62
2023/05/22 03:07:56;;;;;;;54.38;30.42;;;14.60;99.90;;;;;;5098912;28;20113;-67
2023/05/22 03:10:23;;;;;;;56.85;32.17;;;14.80;99.90;;;;;;5099151;28;20059;-69
2023/05/22 03:12:52;;;;;;;61.05;32.40;;;14.90;99.90;;;;;;5098967;28;20266;-64
2023/05/22 03:15:19;;;;;;;65.40;32.28;;;14.80;99.90;;;;;;5081840;28;20034;-62
2023/05/22 03:17:46;;;;;;;60.10;30.67;;;14.80;99.90;;;;;;5081139;28;20118;-61
2023/05/22 03:20:15;;;;;;;68.82;34.30;;;14.80;99.90;;;;;;5097934;28;20082;-64
2023/05/22 03:22:44;;;;;;;62.65;33.60;;;14.80;99.90;;;;;;5097638;28;20088;-63
2023/05/22 03:25:11;;;;;;;62.70;33.15;;;14.60;99.90;;;;;;5081156;28;20074;-66
2023/05/22 03:27:39;;;;;;;71.60;34.85;;;14.60;99.90;;;;;;5081214;28;20037;-65
2023/05/22 03:30:07;;;;;;;71.28;36.55;;;14.60;99.90;;;;;;5098636;28;20108;-64
2023/05/22 03:32:36;;;;;;;74.82;37.58;;;14.60;99.90;;;;;;5080989;28;20342;-65
2023/05/22 03:35:03;;;;;;;76.13;37.17;;;14.60;99.90;;;;;;5064173;28;20071;-64
2023/05/22 03:37:29;;;;;;;74.70;37.60;;;14.60;99.90;;;;;;5080445;28;20059;-61
2023/05/22 03:39:55;;;;;;;73.70;37.70;;;14.60;99.90;;;;;;5097646;28;20032;-62
2023/05/22 03:42:26;;;;;;;80.30;39.92;;;14.80;99.90;;;;;;5097033;28;20028;-69
2023/05/22 03:44:52;;;;;;;73.75;37.95;;;14.90;99.90;;;;;;5097545;28;20418;-62
2023/05/22 03:47:18;;;;;;;84.00;40.95;;;14.80;99.90;;;;;;5080727;28;20036;-63
2023/05/22 03:49:45;;;;;;;86.05;41.50;;;14.90;99.90;;;;;;5080580;28;20113;-62
2023/05/22 03:52:11;;;;;;;81.07;42.10;;;15.00;99.90;;;;;;5080462;28;20043;-63
2023/05/22 03:54:37;;;;;;;80.65;41.47;;;15.00;99.90;;;;;;5097883;28;20039;-64
2023/05/22 03:57:04;;;;;;;81.15;40.67;;;15.00;99.90;;;;;;5096771;28;20036;-64
2023/05/22 03:59:30;;;;;;;72.65;39.20;;;15.00;99.90;;;;;;5097857;28;20039;-62
2023/05/22 04:01:56;;;;;;;81.45;41.05;;;15.00;99.90;;;;;;5114170;28;20028;-67
2023/05/22 04:04:26;;;;;;;79.05;40.03;;;15.00;99.90;;;;;;5063616;28;20039;-63
2023/05/22 04:06:52;;;;;;;89.38;41.30;;;14.90;99.90;;;;;;5097670;28;20052;-62
2023/05/22 04:09:18;;;;;;;84.40;41.72;;;15.00;99.90;;;;;;5080089;28;20109;-63
2023/05/22 04:11:45;;;;;;;84.07;40.60;;;14.90;99.90;;;;;;5097147;28;20039;-68
2023/05/22 04:14:11;;;;;;;81.97;41.05;;;15.10;99.90;;;;;;5097587;28;20108;-64
2023/05/22 04:16:37;;;;;;;79.07;39.88;;;14.90;99.90;;;;;;5097639;28;20020;-64
2023/05/22 04:19:04;;;;;;;89.43;42.42;;;14.90;99.90;;;;;;5097653;28;20028;-68
2023/05/22 04:21:34;;;;;;;87.45;41.40;;;15.00;99.90;;;;;;5096741;28;20039;-67
2023/05/22 04:24:05;;;;;;;90.00;41.75;;;15.10;99.90;;;;;;5096294;28;20043;-66
2023/05/22 04:26:35;;;;;;;90.32;42.15;;;15.20;99.90;;;;;;5097991;28;20097;-65
2023/05/22 04:29:01;;;;;;;85.90;43.50;;;15.20;99.90;;;;;;5080022;28;20028;-66
2023/05/22 04:31:27;;;;;;;87.55;41.72;;;15.20;99.90;;;;;;5097552;28;20169;-63
2023/05/22 04:33:54;;;;;;;85.55;41.20;;;15.10;99.90;;;;;;5079820;28;20032;-71
2023/05/22 04:36:25;;;;;;;82.90;40.55;;;14.90;99.90;;;;;;5097023;28;20397;-66
2023/05/22 04:38:52;;;;;;;88.22;42.50;;;15.00;99.90;;;;;;5113117;28;20051;-68
2023/05/22 04:41:21;;;;;;;84.10;40.20;;;15.10;99.90;;;;;;5097234;28;20086;-64
2023/05/22 04:43:49;;;;;;;83.97;40.22;;;15.10;99.90;;;;;;5097234;28;20028;-64
2023/05/22 04:46:18;;;;;;;77.25;39.63;;;15.00;99.90;;;;;;5079462;28;20469;-64
2023/05/22 04:48:44;;;;;;;76.00;38.97;;;14.80;99.90;;;;;;5079550;28;20047;-66
2023/05/22 04:51:11;;;;;;;75.90;37.90;;;15.00;99.90;;;;;;5097364;28;20064;-65
2023/05/22 04:53:37;;;;;;;71.55;36.80;;;14.90;99.90;;;;;;5079845;28;20028;-67
2023/05/22 04:56:05;;;;;;;69.20;36.17;;;14.80;99.90;;;;;;5079456;28;20032;-64
2023/05/22 04:58:30;;;;;;;65.95;35.65;;;14.60;99.90;;;;;;5079876;28;20359;-66
2023/05/22 05:00:57;;;;;;;63.05;35.60;;;14.50;99.90;;;;;;5096049;28;20021;-68
2023/05/22 05:03:25;;;;;;;67.38;35.78;;;14.50;99.90;;;;;;5097421;28;20111;-64
2023/05/22 05:05:51;;;;;;;67.90;35.85;;;14.50;99.90;;;;;;5095938;28;20382;-63
2023/05/22 05:08:17;;;;;;;64.85;35.17;;;14.50;99.90;;;;;;5079378;28;20031;-67
2023/05/22 05:10:43;;;;;;;61.15;34.85;;;14.50;99.90;;;;;;5079275;28;20423;-65
2023/05/22 05:13:09;;;;;;;71.13;36.42;;;14.60;99.90;;;;;;5079128;28;20028;-63
2023/05/22 05:15:38;;;;;;;64.25;34.97;;;14.70;99.90;;;;;;5079174;28;20082;-67
2023/05/22 05:18:04;;;;;;;57.88;32.88;;;14.70;99.90;;;;;;5097179;28;20035;-68
2023/05/22 05:20:29;;;;;;;62.92;34.20;;;14.70;99.90;;;;;;5097627;28;20039;-62
2023/05/22 05:22:55;;;;;;;60.72;31.40;;;14.70;99.90;;;;;;5096243;28;20020;-66
2023/05/22 05:25:21;;;;;;;65.00;31.95;;;14.60;99.90;;;;;;5096809;28;20036;-65
2023/05/22 05:27:47;;;;;;;61.70;32.55;;;14.40;99.90;;;;;;5096766;28;20028;-68
2023/05/22 05:30:14;;;;;;;61.05;34.35;;;14.40;99.90;;;;;;5079281;28;20035;-63
2023/05/22 05:33:00;;;;;;;61.17;33.17;;;14.40;99.90;;;;;;5079259;28;20035;-68
2023/05/22 05:35:35;;;;;;;62.10;32.42;;;14.30;99.90;;;;;;5079310;28;20036;-64
2023/05/22 05:38:09;;;;;;;64.47;34.60;;;14.30;99.90;;;;;;5096868;28;20049;-65
2023/05/22 05:40:37;;;;;;;65.65;34.05;;;14.40;99.90;;;;;;5062641;28;20036;-64
2023/05/22 05:43:06;;;;;;;65.88;34.97;;;14.50;99.90;;;;;;5079064;28;20036;-66
2023/05/22 05:45:32;;;;;;;65.43;34.60;;;14.50;99.90;;;;;;5095645;28;20078;-65
2023/05/22 05:47:58;;;;;;;65.75;35.13;;;14.60;99.90;;;;;;5079274;28;20059;-69
2023/05/22 05:50:24;;;;;;;59.08;33.20;;;14.80;99.90;;;;;;5116688;28;20067;-65
2023/05/22 05:52:50;;;;;;;58.92;32.55;;;14.70;99.90;;;;;;5082703;28;20050;-63
2023/05/22 05:55:18;;;;;;;63.95;35.22;;;14.70;99.90;;;;;;5082620;28;20040;-63
2023/05/22 05:57:43;;;;;;;62.65;32.70;;;14.80;99.90;;;;;;5100245;28;20032;-66
2023/05/22 06:00:14;;;;;;;62.22;35.88;;;14.80;99.90;;;;;;5083001;28;20024;-69
2023/05/22 06:02:41;;;;;;;65.50;35.63;;;14.90;99.90;;;;;;5117389;28;20146;-66
2023/05/22 06:05:18;;;;;;;59.92;34.28;;;15.10;99.90;;;;;;5098164;28;20024;-66
2023/05/22 06:07:44;;;;;;;59.08;34.63;;;15.00;99.90;;;;;;5065930;28;20047;-66
2023/05/22 06:10:11;;;;;;;61.88;34.63;;;15.00;99.90;;;;;;5082699;28;20026;-66
2023/05/22 06:12:53;;;;;;;;;;;15.10;99.90;;;;;;5083598;28;20292;-66
2023/05/22 06:15:19;;;;;;;64.97;34.60;;;15.20;99.90;;;;;;5099517;28;19915;-66
2023/05/22 06:17:45;;;;;;;60.83;35.25;;;15.20;99.90;;;;;;5099182;28;20082;-63
2023/05/22 06:20:13;;;;;;;60.47;34.03;;;15.30;99.90;;;;;;5100311;28;20032;-72
2023/05/22 06:22:38;;;;;;;58.50;32.65;;;15.20;99.90;;;;;;5115992;28;20039;-70
2023/05/22 06:25:05;;;;;;;53.67;31.42;;;15.30;99.90;;;;;;5082660;28;20461;-68
2023/05/22 06:27:33;;;;;;;53.15;31.73;;;15.10;99.90;;;;;;5099642;28;20383;-68
2023/05/22 06:30:00;;;;;;;65.10;32.85;;;14.90;99.90;;;;;;5099252;28;20056;-65
2023/05/22 06:32:30;;;;;;;46.38;30.90;;;14.90;99.90;;;;;;5082270;28;20081;-68
2023/05/22 06:34:57;;;;;;;49.58;30.25;;;14.90;99.90;;;;;;5082466;28;20028;-66
2023/05/22 06:37:24;;;;;;;53.08;30.90;;;14.90;99.90;;;;;;5098601;28;20055;-67
2023/05/22 06:39:51;;;;;;;49.92;31.45;;;14.70;99.90;;;;;;5082065;28;20047;-69
2023/05/22 06:42:34;;;;;;;50.97;31.25;;;15.00;99.90;;;;;;5081996;28;20115;-69
2023/05/22 06:45:20;;;;;;;62.95;36.08;;;14.90;99.90;;;;;;5113424;28;20036;-67
2023/05/22 06:48:05;;;;;;;66.60;36.85;;;15.10;99.90;;;;;;5085110;28;20046;-70
2023/05/22 06:50:36;;;;;;;61.20;35.80;;;15.00;99.90;;;;;;5082109;28;20035;-71
2023/05/22 06:53:01;;;;;;;68.72;36.80;;;14.90;99.90;;;;;;5100206;28;20032;-64
2023/05/22 06:55:27;;;;;;;60.72;35.70;;;15.00;99.90;;;;;;5081848;28;20028;-69
2023/05/22 06:58:04;;;;;;;63.30;35.97;;;15.10;99.90;;;;;;5100212;28;20399;-67
2023/05/22 07:00:32;;;;;;;68.65;37.85;;;15.20;99.90;;;;;;5099120;28;20035;-67
2023/05/22 07:03:13;;;;;;;71.22;39.60;;;15.10;99.90;;;;;;5067037;28;20514;-68
2023/05/22 07:05:56;;;;;;;85.22;41.85;;;15.10;99.90;;;;;;5081782;28;20024;-70
2023/05/22 07:08:23;;;;;;;76.28;41.53;;;15.40;99.90;;;;;;5082004;28;20028;-69
2023/05/22 07:10:50;;;;;;;76.82;40.63;;;15.50;99.90;;;;;;5081438;28;20036;-67
2023/05/22 07:13:17;;;;;;;74.53;41.28;;;15.60;99.90;;;;;;5064792;28;20036;-70
2023/05/22 07:15:43;;;;;;;78.18;40.30;;;15.60;99.90;;;;;;5081420;28;20028;-65
2023/05/22 07:18:09;;;;;;;69.65;38.67;;;15.80;99.90;;;;;;5081297;28;20321;-69
2023/05/22 07:20:37;;;;;;;64.15;36.65;;;16.00;99.90;;;;;;5081551;28;20445;-69
2023/05/22 07:23:13;;;;;;;68.47;39.45;;;15.90;99.90;;;;;;5081313;28;20395;-71
2023/05/22 07:25:41;;;;;;;63.60;39.05;;;15.90;99.90;;;;;;5097791;28;20128;-69
2023/05/22 07:28:08;;;;;;;64.22;36.45;;;15.80;99.90;;;;;;5081734;28;20396;-68
2023/05/22 07:30:38;;;;;;;61.75;36.40;;;15.70;99.90;;;;;;5081627;28;20039;-72
2023/05/22 07:33:05;;;;;;;67.63;37.40;;;15.80;99.90;;;;;;5097711;28;20042;-66
2023/05/22 07:35:31;;;;;;;61.70;38.20;;;16.00;99.90;;;;;;5099082;28;20105;-66
2023/05/22 07:37:57;;;;;;;66.65;39.00;;;16.10;98.10;;;;;;5080809;28;20093;-65
2023/05/22 07:40:23;;;;;;;63.38;36.60;;;16.20;97.50;;;;;;5080869;28;20020;-66
2023/05/22 07:42:49;;;;;;;62.00;36.58;;;16.30;97.40;;;;;;5080800;28;20053;-65
2023/05/22 07:45:18;;;;;;;61.67;35.22;;;16.40;96.00;;;;;;5081015;28;20295;-65
2023/05/22 07:47:44;;;;;;;55.03;34.40;;;16.50;95.10;;;;;;5097129;28;20388;-67
2023/05/22 07:50:10;;;;;;;58.03;34.63;;;16.70;93.50;;;;;;5080791;28;20109;-67
2023/05/22 07:52:40;;;;;;;54.63;33.55;;;16.80;91.40;;;;;;5080587;28;20127;-67
2023/05/22 07:55:06;;;;;;;64.53;34.97;;;16.90;84.40;;;;;;5097799;28;20111;-68
2023/05/22 07:57:35;;;;;;;57.97;33.58;;;16.90;83.10;;;;;;5080504;28;20403;-65
2023/05/22 08:00:08;;;;;;;51.95;33.60;;;16.90;83.90;;;;;;5080771;28;20039;-66
2023/05/22 08:02:41;;;;;;;55.78;34.33;;;16.80;83.80;;;;;;5098181;28;20043;-67
2023/05/22 08:05:08;;;;;;;51.95;33.80;;;16.80;83.80;;;;;;5098059;28;20092;-72
2023/05/22 08:07:34;;;;;;;57.20;33.33;;;16.80;84.60;;;;;;5114042;28;20059;-74
2023/05/22 08:10:03;;;;;;;55.72;32.72;;;16.80;82.00;;;;;;5097902;28;20040;-72
2023/05/22 08:12:29;;;;;;;49.85;30.90;;;16.80;86.00;;;;;;5079444;28;20418;-68
2023/05/22 08:14:54;;;;;;;56.28;31.40;;;16.70;83.80;;;;;;5098201;28;20116;-68
2023/05/22 08:17:20;;;;;;;50.95;31.48;;;16.80;82.90;;;;;;5098001;28;20032;-72
2023/05/22 08:19:46;;;;;;;51.10;31.05;;;16.60;84.70;;;;;;5097254;28;20099;-68
2023/05/22 08:22:12;;;;;;;48.40;29.35;;;16.60;86.10;;;;;;5114016;28;20028;-66
2023/05/22 08:24:37;;;;;;;46.05;29.20;;;16.70;85.50;;;;;;5097916;28;20055;-73
2023/05/22 08:27:03;;;;;;;44.70;27.88;;;16.70;85.80;;;;;;5097765;28;20124;-74
2023/05/22 08:29:29;;;;;;;44.13;28.58;;;16.80;85.70;;;;;;5097996;28;20028;-66
2023/05/22 08:31:56;;;;;;;49.35;28.65;;;16.80;80.30;;;;;;5097959;28;20114;-67
2023/05/22 08:34:23;;;;;;;46.15;27.02;;;16.90;79.70;;;;;;5097998;28;20020;-72
2023/05/22 08:36:49;;;;;;;43.65;26.13;;;16.70;78.70;;;;;;5097917;28;20039;-69
2023/05/22 08:39:15;;;;;;;45.03;27.35;;;16.30;91.00;;;;;;5098070;28;20036;-67
2023/05/22 08:41:43;;;;;;;46.05;27.75;;;16.00;95.70;;;;;;5080472;28;20075;-68
2023/05/22 08:44:12;;;;;;;43.80;29.88;;;15.80;99.80;;;;;;5097886;28;20087;-68
2023/05/22 08:46:40;;;;;;;49.97;31.48;;;16.10;97.70;;;;;;5096615;28;20127;-72
2023/05/22 08:49:08;;;;;;;40.17;28.13;;;16.50;94.40;;;;;;5096479;28;20028;-68
2023/05/22 08:51:37;;;;;;;46.38;28.52;;;16.50;91.00;;;;;;5097693;28;20119;-67
2023/05/22 08:54:08;;;;;;;43.20;28.80;;;16.60;90.90;;;;;;5096413;28;20287;-69
2023/05/22 08:56:39;;;;;;;45.92;29.55;;;16.60;88.80;;;;;;5097679;28;20064;-73
2023/05/22 08:59:06;;;;;;;51.47;30.65;;;16.80;86.90;;;;;;5080252;28;20032;-69
2023/05/22 09:01:32;;;;;;;47.72;31.13;;;16.90;82.70;;;;;;5113495;28;20036;-66
2023/05/22 09:04:01;;;;;;;52.42;32.05;;;17.10;72.70;;;;;;5097473;28;20403;-66
2023/05/22 09:06:28;;;;;;;53.13;34.30;;;17.40;67.60;;;;;;5097436;28;20059;-66
2023/05/22 09:08:55;;;;;;;54.75;32.88;;;17.40;59.20;;;;;;5097041;28;20043;-70
2023/05/22 09:11:21;;;;;;;54.97;32.55;;;17.60;58.60;;;;;;5097216;28;20387;-70
2023/05/22 09:13:47;;;;;;;54.88;32.70;;;17.90;46.20;;;;;;5113153;28;20458;-67
2023/05/22 09:16:14;;;;;;;54.15;32.65;;;17.70;48.00;;;;;;5079196;28;20032;-68
2023/05/22 09:18:43;;;;;;;45.33;31.48;;;17.60;52.60;;;;;;5079566;28;20036;-63
2023/05/22 09:21:12;;;;;;;46.38;30.67;;;17.80;43.10;;;;;;5079522;28;20040;-68
2023/05/22 09:23:38;;;;;;;51.42;32.22;;;18.00;31.30;;;;;;5116027;28;20422;-70
2023/05/22 09:26:04;;;;;;;45.03;29.35;;;17.70;39.80;;;;;;5117328;28;20028;-70
2023/05/22 09:28:34;;;;;;;46.28;31.52;;;17.70;40.40;;;;;;5101601;28;20024;-68
2023/05/22 09:31:01;;;;;;;45.17;31.40;;;17.70;39.20;;;;;;5117965;28;20032;-71
2023/05/22 09:33:27;;;;;;;49.90;30.40;;;17.50;39.10;;;;;;5083482;28;20077;-71
2023/05/22 09:35:53;;;;;;;48.30;31.17;;;17.60;45.40;;;;;;5083556;28;20280;-65
2023/05/22 09:38:27;;;;;;;51.15;32.65;;;17.80;41.20;;;;;;5101520;28;20060;-73
2023/05/22 09:40:53;;;;;;;50.50;32.22;;;17.80;38.60;;;;;;5102539;28;20111;-67
2023/05/22 09:43:21;;;;;;;53.28;33.08;;;17.80;40.90;;;;;;5117483;28;20320;-70
2023/05/22 09:45:47;;;;;;;48.83;32.00;;;17.80;33.70;;;;;;5101588;28;20345;-66
2023/05/22 09:48:16;;;;;;;50.10;32.22;;;17.90;32.90;;;;;;5101487;28;20028;-71
2023/05/22 09:50:49;;;;;;;54.05;33.08;;;18.00;32.30;;;;;;5101462;28;20020;-68
2023/05/22 09:53:17;;;;;;;55.28;32.78;;;18.30;25.50;;;;;;5100781;28;20050;-65
2023/05/22 09:55:46;;;;;;;45.80;30.20;;;18.50;16.50;;;;;;5100616;28;20059;-71
2023/05/22 09:58:16;;;;;;;53.13;29.40;;;18.70;15.90;;;;;;5101092;28;20028;-67
2023/05/22 10:00:43;;;;;;;47.67;29.30;;;18.80;1.20;;;;;;5101859;28;20031;-69
2023/05/22 10:03:14;;;;;;;51.60;29.40;;;18.50;7.50;;;;;;5083051;28;20035;-70
2023/05/22 10:05:49;;;;;;;53.15;29.83;;;18.20;24.00;;;;;;5101209;28;20032;-72
2023/05/22 10:08:20;;;;;;;45.78;26.88;;;18.50;17.10;;;;;;5101058;28;20353;-71
2023/05/22 10:10:50;;;;;;;52.13;31.33;;;18.40;15.30;;;;;;5101202;28;20307;-67
2023/05/22 10:13:17;;;;;;;55.83;32.78;;;18.60;7.40;;;;;;5100814;28;20024;-66
2023/05/22 10:15:43;;;;;;;53.28;32.25;;;18.50;10.40;;;;;;5117682;28;20024;-68
2023/05/22 10:18:10;;;;;;;51.85;32.75;;;18.50;14.80;;;;;;5100151;28;20038;-70
2023/05/22 10:20:36;;;;;;;47.72;30.65;;;18.70;8.40;;;;;;5100472;28;20089;-70
2023/05/22 10:23:03;;;;;;;52.00;32.28;;;18.70;3.30;;;;;;5083420;28;20063;-66
2023/05/22 10:25:29;;;;;;;50.13;31.90;;;18.60;8.60;;;;;;5100430;28;20032;-71
2023/05/22 10:27:56;;;;;;;51.45;33.35;;;19.00;1.00;;;;;;5100947;28;20060;-71
2023/05/22 10:30:27;;;;;;;49.28;30.92;;;19.30;1.00;;;;;;5100417;28;20031;-67
2023/05/22 10:33:23;;;;;;;50.88;31.08;;;19.10;1.00;;;;;;5099380;28;20063;-72
2023/05/22 10:36:05;;;;;;;50.75;29.58;;;19.20;1.00;;;;;;5099463;28;20093;-66
2023/05/22 10:38:55;;;;;;;51.38;30.05;;;19.20;1.00;;;;;;5082070;28;20028;-68
2023/05/22 10:41:22;;;;;;;48.25;28.52;;;19.20;1.00;;;;;;5100369;28;20079;-68
2023/05/22 10:43:49;;;;;;;45.78;28.25;;;19.10;1.00;;;;;;5100403;28;20020;-67
2023/05/22 10:46:16;;;;;;;43.15;27.02;;;19.40;1.00;;;;;;5083005;28;20106;-68
2023/05/22 10:48:47;;;;;;;45.92;29.02;;;19.70;1.00;;;;;;5065555;28;20028;-71
2023/05/22 10:51:14;;;;;;;42.60;26.33;;;20.10;1.00;;;;;;5082305;28;20036;-69
2023/05/22 10:53:42;;;;;;;40.38;27.27;;;20.00;1.00;;;;;;5082087;28;20042;-65
2023/05/22 10:56:13;;;;;;;43.42;27.15;;;19.70;1.00;;;;;;5083693;28;20024;-75
2023/05/22 10:58:41;;;;;;;48.30;27.63;;;19.80;1.00;;;;;;5099909;28;20129;-71
2023/05/22 11:01:14;;;;;;;43.20;27.95;;;20.20;1.00;;;;;;5099541;28;20070;-70
2023/05/22 11:04:10;;;;;;;50.83;27.98;;;20.30;1.00;;;;;;5081925;28;20096;-72
2023/05/22 11:06:47;;;;;;;47.92;28.73;;;20.40;1.00;;;;;;5081461;28;20083;-70
2023/05/22 11:09:33;;;;;;;48.65;27.27;;;20.00;1.00;;;;;;5099637;28;20127;-66
2023/05/22 11:12:27;;;;;;;42.25;26.80;;;19.80;1.00;;;;;;5115672;28;20035;-70
2023/05/22 11:14:57;;;;;;;43.83;27.00;;;19.50;1.00;;;;;;5099999;28;20070;-70
2023/05/22 11:17:50;;;;;;;46.70;32.35;;;19.90;1.00;;;;;;5081762;28;20447;-70
2023/05/22 11:20:28;;;;;;;42.97;27.83;;;20.30;1.00;;;;;;5098249;28;20135;-69
2023/05/22 11:23:00;;;;;;;43.50;26.92;;;20.60;1.00;;;;;;5081461;28;20032;-69
2023/05/22 11:25:27;;;;;;;48.85;26.40;;;20.70;1.00;;;;;;5099630;28;20027;-67
2023/05/22 11:27:54;;;;;;;48.33;24.67;;;20.80;1.00;;;;;;5099236;28;20024;-67
2023/05/22 11:30:24;;;;;;;45.10;25.98;;;20.80;1.00;;;;;;5099095;28;20036;-68
2023/05/22 11:32:50;;;;;;;41.70;26.35;;;21.00;1.00;;;;;;5098907;28;20046;-67
2023/05/22 11:35:20;;;;;;;45.55;26.73;;;20.90;1.00;;;;;;5115335;28;20024;-69
2023/05/22 11:37:48;;;;;;;44.00;25.65;;;20.70;1.00;;;;;;5099088;28;20031;-72
2023/05/22 11:40:17;;;;;;;46.45;28.17;;;20.60;1.00;;;;;;5082260;28;20085;-72
2023/05/22 11:42:43;;;;;;;44.15;29.15;;;20.70;1.00;;;;;;5099247;28;20020;-67
2023/05/22 11:45:09;;;;;;;47.63;28.48;;;21.40;1.00;;;;;;5080681;28;20288;-71
2023/05/22 11:47:36;;;;;;;46.78;30.50;;;21.60;1.00;;;;;;5097815;28;20295;-66
2023/05/22 11:50:03;;;;;;;43.30;29.45;;;21.10;1.00;;;;;;5098960;28;20069;-69
2023/05/22 11:52:33;;;;;;;48.03;28.30;;;20.90;1.00;;;;;;5080955;28;20393;-68
2023/05/22 11:55:00;;;;;;;44.00;25.90;;;20.60;1.00;;;;;;5098765;28;20111;-69
2023/05/22 11:57:26;;;;;;;40.35;24.60;;;20.90;1.00;;;;;;5098513;28;20088;-67
2023/05/22 11:59:52;;;;;;;38.88;22.63;;;21.50;1.00;;;;;;5114431;28;20024;-73
2023/05/22 12:02:18;;;;;;;38.03;23.60;;;22.40;1.00;;;;;;5098518;28;20039;-70
2023/05/22 12:04:45;;;;;;;43.00;25.20;;;22.70;1.00;;;;;;5098233;28;20039;-69
2023/05/22 12:07:11;;;;;;;37.10;22.58;;;23.20;1.00;;;;;;5097124;28;20052;-67
2023/05/22 12:09:41;;;;;;;33.95;21.83;;;23.60;1.00;;;;;;5080339;28;20039;-69
2023/05/22 12:12:10;;;;;;;40.60;26.80;;;24.70;99.90;;;;;;5098428;28;20036;-72
2023/05/22 12:14:37;;;;;;;46.78;31.08;;;25.00;38.70;;;;;;5098738;28;20115;-73
2023/05/22 12:17:03;;;;;;;41.08;29.23;;;25.10;1.00;;;;;;5098301;28;20190;-75
2023/05/22 12:19:29;;;;;;;38.60;26.23;;;24.50;99.90;;;;;;5114416;28;20032;-72
2023/05/22 12:21:55;;;;;;;44.55;28.45;;;25.00;1.00;;;;;;5080287;28;20087;-70
2023/05/22 12:24:22;;;;;;;36.35;23.55;;;25.20;1.00;;;;;;5079932;28;20035;-66
2023/05/22 12:26:55;;;;;;;45.70;29.20;;;25.60;1.00;;;;;;5097636;28;20032;-69
2023/05/22 12:29:22;;;;;;;40.17;26.13;;;25.40;99.90;;;;;;5097962;28;20024;-66
2023/05/22 12:31:48;;;;;;;43.25;26.60;;;25.10;1.00;;;;;;5097761;28;20077;-68
2023/05/22 12:34:16;;;;;;;41.92;25.80;;;25.00;1.00;;;;;;5096802;28;20024;-70
2023/05/22 12:36:43;;;;;;;36.40;25.20;;;25.30;1.00;;;;;;5098188;28;20016;-70